Terminal Aerodrome Forecast
Issued by NWS Sterling, VA

Current Version | Previous Version | Graphics & Text | Print | Product List | Glossary On
Versions: 1 2 3 4 5 6 7 8 9 10 11 12 13 14 15 16 17 18 19 20 21
000
FTUS41 KLWX 160523
TAFMRB
TAF
KMRB 160523Z 1606/1706 00000KT 3SM BR SCT001 SCT250
      TEMPO 1606/1609 1SM BR BKN001
     FM160900 00000KT 1SM BR OVC001
      TEMPO 1609/1612 1/4SM FG VV001
     FM161300 VRB03KT P6SM SCT050 SCT250=

USA.gov is the U.S. government's official web portal to all federal, state and local government web resources and services.